sensor_id;sensor_type;location;lat;lon;timestamp;pressure;altitude;pressure_sealevel;temperature;humidity
68616;BME280;57261;47.504;19.084;2022-12-11T00:01:49;98336.09;;;14.07;69.17
68616;BME280;57261;47.504;19.084;2022-12-11T00:04:49;98336.31;;;14.04;68.90
68616;BME280;57261;47.504;19.084;2022-12-11T00:07:50;98317.97;;;13.95;69.07
68616;BME280;57261;47.504;19.084;2022-12-11T00:10:50;98322.84;;;13.99;69.26
68616;BME280;57261;47.504;19.084;2022-12-11T00:13:51;98311.75;;;13.97;68.64
68616;BME280;57261;47.504;19.084;2022-12-11T00:16:51;98323.78;;;13.98;69.12
68616;BME280;57261;47.504;19.084;2022-12-11T00:19:52;98301.13;;;13.77;69.08
68616;BME280;57261;47.504;19.084;2022-12-11T00:22:52;98319.63;;;13.96;69.49
68616;BME280;57261;47.504;19.084;2022-12-11T00:25:53;98278.13;;;13.72;68.92
68616;BME280;57261;47.504;19.084;2022-12-11T00:28:54;98306.19;;;13.91;69.59
68616;BME280;57261;47.504;19.084;2022-12-11T00:31:55;98285.78;;;13.74;69.52
68616;BME280;57261;47.504;19.084;2022-12-11T00:34:55;98319.84;;;13.93;69.15
68616;BME280;57261;47.504;19.084;2022-12-11T00:37:56;98307.53;;;13.84;68.97
68616;BME280;57261;47.504;19.084;2022-12-11T00:40:58;98309.50;;;13.80;69.81
68616;BME280;57261;47.504;19.084;2022-12-11T00:43:59;98291.88;;;13.73;69.49
68616;BME280;57261;47.504;19.084;2022-12-11T00:46:59;98311.69;;;13.86;69.38
68616;BME280;57261;47.504;19.084;2022-12-11T00:50:00;98317.66;;;13.87;69.33
68616;BME280;57261;47.504;19.084;2022-12-11T00:53:01;98292.22;;;13.68;69.68
68616;BME280;57261;47.504;19.084;2022-12-11T00:56:08;98312.59;;;13.85;69.33
68616;BME280;57261;47.504;19.084;2022-12-11T00:59:09;98313.53;;;13.84;69.68
68616;BME280;57261;47.504;19.084;2022-12-11T01:02:11;98313.53;;;13.84;69.82
68616;BME280;57261;47.504;19.084;2022-12-11T01:05:11;98312.72;;;13.84;69.56
68616;BME280;57261;47.504;19.084;2022-12-11T01:08:11;98302.78;;;13.78;69.75
68616;BME280;57261;47.504;19.084;2022-12-11T01:11:13;98306.50;;;13.86;69.80
68616;BME280;57261;47.504;19.084;2022-12-11T01:14:14;98322.16;;;13.85;69.82
68616;BME280;57261;47.504;19.084;2022-12-11T01:17:14;98322.97;;;13.85;69.57
68616;BME280;57261;47.504;19.084;2022-12-11T01:20:18;98331.66;;;13.84;69.44
68616;BME280;57261;47.504;19.084;2022-12-11T01:23:18;98323.78;;;13.86;69.18
68616;BME280;57261;47.504;19.084;2022-12-11T01:26:19;98315.94;;;13.87;69.68
68616;BME280;57261;47.504;19.084;2022-12-11T01:29:21;98326.59;;;13.83;69.75
68616;BME280;57261;47.504;19.084;2022-12-11T01:32:21;98328.75;;;13.89;69.34
68616;BME280;57261;47.504;19.084;2022-12-11T01:35:23;98326.28;;;13.87;69.75
68616;BME280;57261;47.504;19.084;2022-12-11T01:38:23;98323.88;;;13.84;69.33
68616;BME280;57261;47.504;19.084;2022-12-11T01:41:24;98334.28;;;13.72;69.32
68616;BME280;57261;47.504;19.084;2022-12-11T01:47:25;98334.97;;;13.74;70.16
68616;BME280;57261;47.504;19.084;2022-12-11T01:50:31;98339.03;;;13.78;69.55
68616;BME280;57261;47.504;19.084;2022-12-11T01:53:39;98338.19;;;13.77;69.54
68616;BME280;57261;47.504;19.084;2022-12-11T01:56:44;98339.03;;;13.65;70.14
68616;BME280;57261;47.504;19.084;2022-12-11T01:59:47;98346.47;;;13.70;69.75
68616;BME280;57261;47.504;19.084;2022-12-11T02:02:48;98347.09;;;13.73;70.09
68616;BME280;57261;47.504;19.084;2022-12-11T02:05:49;98350.41;;;13.63;69.90
68616;BME280;57261;47.504;19.084;2022-12-11T02:08:49;98360.88;;;13.74;69.70
68616;BME280;57261;47.504;19.084;2022-12-11T02:12:01;98345.13;;;13.64;69.75
68616;BME280;57261;47.504;19.084;2022-12-11T02:21:23;98352.06;;;13.64;69.84
68616;BME280;57261;47.504;19.084;2022-12-11T02:27:35;98342.00;;;13.47;70.12
68616;BME280;57261;47.504;19.084;2022-12-11T02:30:40;98345.84;;;13.41;69.90
68616;BME280;57261;47.504;19.084;2022-12-11T02:37:06;98341.03;;;13.35;68.28
68616;BME280;57261;47.504;19.084;2022-12-11T02:40:10;98340.44;;;13.44;70.15
68616;BME280;57261;47.504;19.084;2022-12-11T02:43:15;98325.84;;;13.43;70.20
68616;BME280;57261;47.504;19.084;2022-12-11T02:46:18;98341.47;;;13.42;69.46
68616;BME280;57261;47.504;19.084;2022-12-11T02:49:20;98334.13;;;13.36;70.50
68616;BME280;57261;47.504;19.084;2022-12-11T02:52:24;98337.03;;;13.44;70.47
68616;BME280;57261;47.504;19.084;2022-12-11T02:55:27;98337.03;;;13.44;70.34
68616;BME280;57261;47.504;19.084;2022-12-11T02:58:31;98330.63;;;13.37;70.25
68616;BME280;57261;47.504;19.084;2022-12-11T03:01:37;98329.34;;;13.42;70.49
68616;BME280;57261;47.504;19.084;2022-12-11T03:04:38;98328.03;;;13.37;70.30
68616;BME280;57261;47.504;19.084;2022-12-11T03:07:41;98326.78;;;13.30;70.14
68616;BME280;57261;47.504;19.084;2022-12-11T03:10:43;98295.53;;;13.21;70.26
68616;BME280;57261;47.504;19.084;2022-12-11T03:13:43;98315.50;;;13.31;69.80
68616;BME280;57261;47.504;19.084;2022-12-11T03:23:51;98325.00;;;13.30;70.37
68616;BME280;57261;47.504;19.084;2022-12-11T03:27:02;98315.69;;;13.28;70.60
68616;BME280;57261;47.504;19.084;2022-12-11T03:30:07;98306.78;;;13.20;70.27
68616;BME280;57261;47.504;19.084;2022-12-11T03:33:14;98318.88;;;13.19;69.35
68616;BME280;57261;47.504;19.084;2022-12-11T03:36:20;98326.34;;;13.24;70.48
68616;BME280;57261;47.504;19.084;2022-12-11T03:39:31;98311.66;;;13.24;70.29
68616;BME280;57261;47.504;19.084;2022-12-11T03:42:33;98309.16;;;13.23;70.20
68616;BME280;57261;47.504;19.084;2022-12-11T03:45:34;98320.13;;;13.26;70.52
68616;BME280;57261;47.504;19.084;2022-12-11T03:48:39;98332.88;;;13.29;70.68
68616;BME280;57261;47.504;19.084;2022-12-11T03:51:42;98333.63;;;13.31;70.17
68616;BME280;57261;47.504;19.084;2022-12-11T03:54:45;98307.28;;;13.12;69.93
68616;BME280;57261;47.504;19.084;2022-12-11T03:57:48;98323.97;;;13.21;70.84
68616;BME280;57261;47.504;19.084;2022-12-11T04:00:48;98320.34;;;13.23;70.48
68616;BME280;57261;47.504;19.084;2022-12-11T04:03:49;98311.84;;;13.21;70.24
68616;BME280;57261;47.504;19.084;2022-12-11T04:06:49;98327.25;;;13.23;68.04
68616;BME280;57261;47.504;19.084;2022-12-11T04:09:49;98337.53;;;13.24;69.25
68616;BME280;57261;47.504;19.084;2022-12-11T04:12:50;98334.22;;;13.22;70.26
68616;BME280;57261;47.504;19.084;2022-12-11T04:15:50;98335.25;;;13.20;70.55
68616;BME280;57261;47.504;19.084;2022-12-11T04:18:51;98337.72;;;13.21;70.60
68616;BME280;57261;47.504;19.084;2022-12-11T04:22:13;98341.44;;;13.17;70.34
68616;BME280;57261;47.504;19.084;2022-12-11T04:25:32;98339.78;;;13.16;70.50
68616;BME280;57261;47.504;19.084;2022-12-11T04:28:34;98341.19;;;12.95;70.28
68616;BME280;57261;47.504;19.084;2022-12-11T04:31:35;98328.13;;;12.70;64.68
68616;BME280;57261;47.504;19.084;2022-12-11T04:34:37;98355.56;;;12.85;65.30
68616;BME280;57261;47.504;19.084;2022-12-11T04:37:39;98356.75;;;12.67;64.73
68616;BME280;57261;47.504;19.084;2022-12-11T04:40:40;98366.44;;;11.96;62.81
68616;BME280;57261;47.504;19.084;2022-12-11T04:43:41;98364.00;;;12.49;71.55
68616;BME280;57261;47.504;19.084;2022-12-11T04:46:44;98373.66;;;12.59;70.74
68616;BME280;57261;47.504;19.084;2022-12-11T04:49:44;98412.50;;;12.71;71.12
68616;BME280;57261;47.504;19.084;2022-12-11T04:52:45;98398.59;;;12.86;70.90
68616;BME280;57261;47.504;19.084;2022-12-11T04:55:45;98398.75;;;12.71;69.38
68616;BME280;57261;47.504;19.084;2022-12-11T04:58:46;98395.38;;;12.83;71.01
68616;BME280;57261;47.504;19.084;2022-12-11T05:01:51;98401.56;;;12.94;70.87
68616;BME280;57261;47.504;19.084;2022-12-11T05:04:52;98406.94;;;12.91;70.33
68616;BME280;57261;47.504;19.084;2022-12-11T05:07:52;98407.75;;;12.92;68.75
68616;BME280;57261;47.504;19.084;2022-12-11T05:11:04;98422.47;;;12.91;68.82
68616;BME280;57261;47.504;19.084;2022-12-11T05:14:05;98415.13;;;12.84;70.47
68616;BME280;57261;47.504;19.084;2022-12-11T05:17:05;98404.53;;;12.74;70.47
68616;BME280;57261;47.504;19.084;2022-12-11T05:20:12;98421.34;;;12.81;70.53
68616;BME280;57261;47.504;19.084;2022-12-11T05:23:12;98416.53;;;12.75;70.15
68616;BME280;57261;47.504;19.084;2022-12-11T05:26:16;98436.19;;;12.92;70.19
68616;BME280;57261;47.504;19.084;2022-12-11T05:29:16;98423.16;;;12.93;70.48
68616;BME280;57261;47.504;19.084;2022-12-11T05:32:17;98429.72;;;12.99;70.14
68616;BME280;57261;47.504;19.084;2022-12-11T05:35:17;98417.94;;;12.95;69.35
68616;BME280;57261;47.504;19.084;2022-12-11T05:38:17;98427.47;;;12.52;68.98
68616;BME280;57261;47.504;19.084;2022-12-11T05:41:20;98432.06;;;12.61;68.83
68616;BME280;57261;47.504;19.084;2022-12-11T05:44:22;98419.41;;;12.71;70.55
68616;BME280;57261;47.504;19.084;2022-12-11T05:47:22;98423.31;;;12.64;63.06
68616;BME280;57261;47.504;19.084;2022-12-11T05:50:23;98436.84;;;12.81;70.61
68616;BME280;57261;47.504;19.084;2022-12-11T05:53:23;98417.38;;;12.90;70.55
68616;BME280;57261;47.504;19.084;2022-12-11T05:56:27;98423.91;;;12.95;70.65
68616;BME280;57261;47.504;19.084;2022-12-11T05:59:28;98423.16;;;12.93;69.77
68616;BME280;57261;47.504;19.084;2022-12-11T06:02:28;98422.47;;;12.91;70.69
68616;BME280;57261;47.504;19.084;2022-12-11T06:05:30;98444.88;;;12.91;69.76
68616;BME280;57261;47.504;19.084;2022-12-11T06:08:31;98451.53;;;12.95;70.32
68616;BME280;57261;47.504;19.084;2022-12-11T06:11:32;98458.91;;;13.01;70.10
68616;BME280;57261;47.504;19.084;2022-12-11T06:14:33;98449.38;;;13.01;70.16
68616;BME280;57261;47.504;19.084;2022-12-11T06:17:33;98464.91;;;13.01;70.02
68616;BME280;57261;47.504;19.084;2022-12-11T06:20:34;98475.91;;;12.91;70.60
68616;BME280;57261;47.504;19.084;2022-12-11T06:23:34;98485.88;;;12.97;70.51
68616;BME280;57261;47.504;19.084;2022-12-11T06:26:34;98488.38;;;12.84;69.04
68616;BME280;57261;47.504;19.084;2022-12-11T06:29:35;98488.00;;;12.76;69.25
68616;BME280;57261;47.504;19.084;2022-12-11T06:32:37;98484.41;;;12.79;70.40
68616;BME280;57261;47.504;19.084;2022-12-11T06:35:37;98501.00;;;12.89;69.96
68616;BME280;57261;47.504;19.084;2022-12-11T06:38:38;98507.56;;;12.39;65.15
68616;BME280;57261;47.504;19.084;2022-12-11T06:41:38;98497.78;;;12.30;70.44
68616;BME280;57261;47.504;19.084;2022-12-11T06:44:39;98520.72;;;12.06;66.78
68616;BME280;57261;47.504;19.084;2022-12-11T06:47:39;98537.78;;;12.09;69.40
68616;BME280;57261;47.504;19.084;2022-12-11T06:50:40;98533.38;;;12.39;70.65
68616;BME280;57261;47.504;19.084;2022-12-11T06:53:41;98536.56;;;12.57;70.90
68616;BME280;57261;47.504;19.084;2022-12-11T06:56:41;98548.75;;;12.69;70.93
68616;BME280;57261;47.504;19.084;2022-12-11T06:59:42;98552.50;;;12.64;69.33
68616;BME280;57261;47.504;19.084;2022-12-11T07:02:42;98561.19;;;12.77;70.30
68616;BME280;57261;47.504;19.084;2022-12-11T07:05:43;98558.22;;;12.83;70.42
68616;BME280;57261;47.504;19.084;2022-12-11T07:08:46;98572.50;;;12.90;70.12
68616;BME280;57261;47.504;19.084;2022-12-11T07:11:48;98540.25;;;12.67;70.32
68616;BME280;57261;47.504;19.084;2022-12-11T07:14:50;98569.59;;;12.80;68.86
68616;BME280;57261;47.504;19.084;2022-12-11T07:17:50;98570.13;;;12.85;69.55
68616;BME280;57261;47.504;19.084;2022-12-11T07:20:51;98567.88;;;12.95;70.14
68616;BME280;57261;47.504;19.084;2022-12-11T07:23:51;98575.91;;;12.90;69.68
68616;BME280;57261;47.504;19.084;2022-12-11T07:26:52;98566.09;;;12.81;69.95
68616;BME280;57261;47.504;19.084;2022-12-11T07:29:52;98585.88;;;12.96;69.27
68616;BME280;57261;47.504;19.084;2022-12-11T07:32:54;98582.38;;;12.97;69.94
68616;BME280;57261;47.504;19.084;2022-12-11T07:35:54;98561.88;;;12.94;69.88
68616;BME280;57261;47.504;19.084;2022-12-11T07:38:55;98586.44;;;13.01;69.60
68616;BME280;57261;47.504;19.084;2022-12-11T07:41:58;98598.34;;;13.04;69.61
68616;BME280;57261;47.504;19.084;2022-12-11T07:45:02;98612.78;;;13.08;69.05
68616;BME280;57261;47.504;19.084;2022-12-11T07:48:02;98613.63;;;12.79;67.66
68616;BME280;57261;47.504;19.084;2022-12-11T07:51:25;98604.91;;;12.95;69.30
68616;BME280;57261;47.504;19.084;2022-12-11T07:54:27;98630.22;;;13.04;69.44
68616;BME280;57261;47.504;19.084;2022-12-11T07:57:28;98632.50;;;13.09;69.14
68616;BME280;57261;47.504;19.084;2022-12-11T08:00:28;98628.34;;;13.06;68.84
68616;BME280;57261;47.504;19.084;2022-12-11T08:03:29;98649.69;;;13.10;69.47
68616;BME280;57261;47.504;19.084;2022-12-11T08:06:34;98637.41;;;13.13;69.34
68616;BME280;57261;47.504;19.084;2022-12-11T08:09:35;98637.34;;;13.15;69.24
68616;BME280;57261;47.504;19.084;2022-12-11T08:12:35;98642.69;;;13.12;69.62
68616;BME280;57261;47.504;19.084;2022-12-11T08:15:37;98644.25;;;13.14;69.01
68616;BME280;57261;47.504;19.084;2022-12-11T08:18:38;98655.06;;;12.93;68.53
68616;BME280;57261;47.504;19.084;2022-12-11T08:21:40;98590.72;;;12.59;66.54
68616;BME280;57261;47.504;19.084;2022-12-11T08:24:45;98673.44;;;13.02;68.34
68616;BME280;57261;47.504;19.084;2022-12-11T08:27:48;98673.34;;;13.04;66.14
68616;BME280;57261;47.504;19.084;2022-12-11T08:30:49;98674.91;;;13.06;67.53
68616;BME280;57261;47.504;19.084;2022-12-11T08:33:50;98688.31;;;12.99;68.75
68616;BME280;57261;47.504;19.084;2022-12-11T08:36:51;98662.34;;;13.00;69.05
68616;BME280;57261;47.504;19.084;2022-12-11T08:39:51;98686.16;;;13.05;68.41
68616;BME280;57261;47.504;19.084;2022-12-11T08:42:52;98689.13;;;13.13;67.97
68616;BME280;57261;47.504;19.084;2022-12-11T08:45:52;98695.88;;;13.02;69.15
68616;BME280;57261;47.504;19.084;2022-12-11T08:48:53;98730.69;;;12.96;68.87
68616;BME280;57261;47.504;19.084;2022-12-11T08:51:54;98714.91;;;12.85;69.27
68616;BME280;57261;47.504;19.084;2022-12-11T08:54:54;98719.69;;;12.63;69.41
68616;BME280;57261;47.504;19.084;2022-12-11T08:57:55;98728.03;;;12.82;69.12
68616;BME280;57261;47.504;19.084;2022-12-11T09:00:56;98732.53;;;12.94;68.56
68616;BME280;57261;47.504;19.084;2022-12-11T09:03:57;98740.19;;;12.96;68.83
68616;BME280;57261;47.504;19.084;2022-12-11T09:06:58;98719.16;;;12.86;64.85
68616;BME280;57261;47.504;19.084;2022-12-11T09:09:58;98732.53;;;12.94;68.84
68616;BME280;57261;47.504;19.084;2022-12-11T09:13:00;98736.13;;;12.92;69.27
68616;BME280;57261;47.504;19.084;2022-12-11T09:16:03;98740.03;;;12.99;69.28
68616;BME280;57261;47.504;19.084;2022-12-11T09:19:06;98731.81;;;13.06;69.41
68616;BME280;57261;47.504;19.084;2022-12-11T09:22:07;98731.09;;;13.04;66.64
68616;BME280;57261;47.504;19.084;2022-12-11T09:25:10;98731.78;;;12.92;68.61
68616;BME280;57261;47.504;19.084;2022-12-11T09:28:10;98723.75;;;12.97;68.67
68616;BME280;57261;47.504;19.084;2022-12-11T09:31:21;98726.63;;;13.06;68.65
68616;BME280;57261;47.504;19.084;2022-12-11T09:34:23;98740.13;;;12.97;68.24
68616;BME280;57261;47.504;19.084;2022-12-11T09:37:23;98719.25;;;13.00;68.53
68616;BME280;57261;47.504;19.084;2022-12-11T09:40:24;98734.00;;;12.98;66.51
68616;BME280;57261;47.504;19.084;2022-12-11T09:43:32;98744.94;;;13.03;69.11
68616;BME280;57261;47.504;19.084;2022-12-11T09:46:38;98726.69;;;12.91;68.52
68616;BME280;57261;47.504;19.084;2022-12-11T09:49:42;98738.44;;;12.96;68.55
68616;BME280;57261;47.504;19.084;2022-12-11T09:53:01;98733.00;;;13.01;68.92
68616;BME280;57261;47.504;19.084;2022-12-11T09:56:18;98750.66;;;13.08;63.55
68616;BME280;57261;47.504;19.084;2022-12-11T09:59:40;98735.03;;;12.80;66.58
68616;BME280;57261;47.504;19.084;2022-12-11T10:03:27;98727.75;;;13.02;68.68
68616;BME280;57261;47.504;19.084;2022-12-11T10:06:57;98715.28;;;13.09;68.71
68616;BME280;57261;47.504;19.084;2022-12-11T10:13:34;98710.75;;;13.12;68.26
68616;BME280;57261;47.504;19.084;2022-12-11T10:16:44;98718.06;;;13.06;66.90
68616;BME280;57261;47.504;19.084;2022-12-11T10:19:47;98734.31;;;13.08;68.33
68616;BME280;57261;47.504;19.084;2022-12-11T10:22:49;98740.31;;;13.08;68.61
68616;BME280;57261;47.504;19.084;2022-12-11T10:26:03;98722.31;;;13.07;68.06
68616;BME280;57261;47.504;19.084;2022-12-11T10:29:11;98741.13;;;13.09;67.32
68616;BME280;57261;47.504;19.084;2022-12-11T10:32:21;98747.16;;;13.09;68.75
68616;BME280;57261;47.504;19.084;2022-12-11T10:38:38;98740.44;;;13.21;68.00
68616;BME280;57261;47.504;19.084;2022-12-11T10:41:42;98742.16;;;13.20;68.40
68616;BME280;57261;47.504;19.084;2022-12-11T10:44:59;98743.09;;;13.19;67.70
68616;BME280;57261;47.504;19.084;2022-12-11T10:48:10;98761.19;;;13.19;68.41
68616;BME280;57261;47.504;19.084;2022-12-11T10:51:13;98768.91;;;13.21;68.17
68616;BME280;57261;47.504;19.084;2022-12-11T10:57:35;98692.34;;;12.59;68.13
68616;BME280;57261;47.504;19.084;2022-12-11T11:00:39;98688.84;;;12.60;68.15
68616;BME280;57261;47.504;19.084;2022-12-11T11:04:05;98778.50;;;13.19;67.99
68616;BME280;57261;47.504;19.084;2022-12-11T11:07:25;98781.34;;;13.14;68.15
68616;BME280;57261;47.504;19.084;2022-12-11T11:10:26;98774.50;;;13.13;68.38
68616;BME280;57261;47.504;19.084;2022-12-11T11:13:29;98768.94;;;13.05;66.12
68616;BME280;57261;47.504;19.084;2022-12-11T11:16:30;98763.81;;;12.90;68.26
68616;BME280;57261;47.504;19.084;2022-12-11T11:19:35;98762.47;;;13.12;68.00
68616;BME280;57261;47.504;19.084;2022-12-11T11:22:39;98765.81;;;13.14;68.21
68616;BME280;57261;47.504;19.084;2022-12-11T11:26:01;98748.25;;;13.19;67.86
68616;BME280;57261;47.504;19.084;2022-12-11T11:29:12;98753.38;;;13.21;67.81
68616;BME280;57261;47.504;19.084;2022-12-11T11:32:32;98727.56;;;13.05;68.30
68616;BME280;57261;47.504;19.084;2022-12-11T11:35:33;98775.72;;;13.22;68.01
68616;BME280;57261;47.504;19.084;2022-12-11T11:38:36;98769.16;;;13.16;66.30
68616;BME280;57261;47.504;19.084;2022-12-11T11:41:59;98776.47;;;13.24;67.50
68616;BME280;57261;47.504;19.084;2022-12-11T11:45:08;98767.19;;;13.06;67.97
68616;BME280;57261;47.504;19.084;2022-12-11T11:52:04;98795.31;;;13.26;67.92
68616;BME280;57261;47.504;19.084;2022-12-11T11:55:16;98797.59;;;13.16;67.64
68616;BME280;57261;47.504;19.084;2022-12-11T11:58:24;98795.13;;;13.15;67.79
68616;BME280;57261;47.504;19.084;2022-12-11T12:01:26;98786.00;;;13.23;68.10
68616;BME280;57261;47.504;19.084;2022-12-11T12:04:33;98807.75;;;13.19;67.86
68616;BME280;57261;47.504;19.084;2022-12-11T12:21:36;98830.97;;;13.21;67.54
68616;BME280;57261;47.504;19.084;2022-12-11T12:25:09;98833.47;;;13.22;67.33
68616;BME280;57261;47.504;19.084;2022-12-11T12:28:21;98831.03;;;13.19;66.88
68616;BME280;57261;47.504;19.084;2022-12-11T12:38:33;98812.59;;;12.80;66.53
68616;BME280;57261;47.504;19.084;2022-12-11T12:44:58;98820.41;;;13.10;67.74
68616;BME280;57261;47.504;19.084;2022-12-11T12:48:06;98817.91;;;13.08;67.61
68616;BME280;57261;47.504;19.084;2022-12-11T12:51:12;98829.53;;;13.01;67.58
68616;BME280;57261;47.504;19.084;2022-12-11T12:54:15;98842.75;;;13.11;67.68
68616;BME280;57261;47.504;19.084;2022-12-11T12:57:17;98840.06;;;13.12;67.80
68616;BME280;57261;47.504;19.084;2022-12-11T13:00:27;98864.13;;;13.14;67.24
68616;BME280;57261;47.504;19.084;2022-12-11T13:03:31;98865.13;;;13.12;67.31
68616;BME280;57261;47.504;19.084;2022-12-11T13:06:44;98870.19;;;13.13;67.39
68616;BME280;57261;47.504;19.084;2022-12-11T13:10:27;98882.97;;;13.16;67.76
68616;BME280;57261;47.504;19.084;2022-12-11T13:14:00;98891.09;;;13.10;67.41
68616;BME280;57261;47.504;19.084;2022-12-11T13:20:16;98886.56;;;13.14;67.24
68616;BME280;57261;47.504;19.084;2022-12-11T13:23:31;98905.34;;;13.17;67.62
68616;BME280;57261;47.504;19.084;2022-12-11T13:26:33;98898.84;;;13.10;67.54
68616;BME280;57261;47.504;19.084;2022-12-11T13:29:39;98885.50;;;13.02;67.59
68616;BME280;57261;47.504;19.084;2022-12-11T13:32:42;98887.16;;;13.03;67.29
68616;BME280;57261;47.504;19.084;2022-12-11T13:39:23;98922.34;;;13.21;67.50
68616;BME280;57261;47.504;19.084;2022-12-11T13:42:31;98918.19;;;13.19;67.49
68616;BME280;57261;47.504;19.084;2022-12-11T13:45:50;98918.09;;;13.20;67.31
68616;BME280;57261;47.504;19.084;2022-12-11T13:48:55;98924.00;;;13.22;67.51
68616;BME280;57261;47.504;19.084;2022-12-11T13:52:00;98925.19;;;13.17;66.47
68616;BME280;57261;47.504;19.084;2022-12-11T13:55:00;98918.84;;;13.22;67.06
68616;BME280;57261;47.504;19.084;2022-12-11T13:58:15;98899.91;;;13.06;67.94
68616;BME280;57261;47.504;19.084;2022-12-11T14:01:23;98912.78;;;13.08;67.34
68616;BME280;57261;47.504;19.084;2022-12-11T14:04:27;98936.72;;;13.11;66.08
68616;BME280;57261;47.504;19.084;2022-12-11T14:07:31;98918.91;;;12.91;62.55
68616;BME280;57261;47.504;19.084;2022-12-11T14:10:32;98952.66;;;12.88;67.17
68616;BME280;57261;47.504;19.084;2022-12-11T14:13:35;98957.13;;;12.69;56.92
68616;BME280;57261;47.504;19.084;2022-12-11T14:16:41;98940.09;;;12.65;67.61
68616;BME280;57261;47.504;19.084;2022-12-11T14:19:48;98966.09;;;12.95;67.60
68616;BME280;57261;47.504;19.084;2022-12-11T14:22:49;98975.59;;;12.94;67.44
68616;BME280;57261;47.504;19.084;2022-12-11T14:25:59;98979.59;;;13.00;67.68
68616;BME280;57261;47.504;19.084;2022-12-11T14:29:02;98981.94;;;13.04;67.66
68616;BME280;57261;47.504;19.084;2022-12-11T14:32:04;98992.88;;;12.94;64.73
68616;BME280;57261;47.504;19.084;2022-12-11T14:35:17;98997.78;;;12.98;67.20
68616;BME280;57261;47.504;19.084;2022-12-11T14:38:37;99000.31;;;12.35;63.99
68616;BME280;57261;47.504;19.084;2022-12-11T14:45:34;99001.31;;;12.80;68.07
68616;BME280;57261;47.504;19.084;2022-12-11T14:48:43;99003.91;;;12.80;68.23
68616;BME280;57261;47.504;19.084;2022-12-11T14:51:44;99010.50;;;12.86;67.60
68616;BME280;57261;47.504;19.084;2022-12-11T14:54:52;99013.03;;;12.87;66.35
68616;BME280;57261;47.504;19.084;2022-12-11T14:57:56;99003.97;;;12.63;67.89
68616;BME280;57261;47.504;19.084;2022-12-11T15:04:22;99022.00;;;12.80;68.20
68616;BME280;57261;47.504;19.084;2022-12-11T15:07:26;99030.09;;;12.74;68.23
68616;BME280;57261;47.504;19.084;2022-12-11T15:10:38;99020.66;;;12.73;67.94
68616;BME280;57261;47.504;19.084;2022-12-11T15:14:01;99023.81;;;12.78;67.58
68616;BME280;57261;47.504;19.084;2022-12-11T15:17:02;99035.50;;;12.85;67.69
68616;BME280;57261;47.504;19.084;2022-12-11T15:20:20;99038.28;;;12.82;67.68
68616;BME280;57261;47.504;19.084;2022-12-11T15:23:21;99050.13;;;12.86;66.15
68616;BME280;57261;47.504;19.084;2022-12-11T15:26:43;99044.94;;;12.88;67.87
68616;BME280;57261;47.504;19.084;2022-12-11T15:29:44;99039.34;;;12.78;67.00
68616;BME280;57261;47.504;19.084;2022-12-11T15:32:45;99048.84;;;12.46;66.38
68616;BME280;57261;47.504;19.084;2022-12-11T15:39:32;99039.06;;;12.67;68.17
68616;BME280;57261;47.504;19.084;2022-12-11T15:42:38;99040.44;;;12.74;67.96
68616;BME280;57261;47.504;19.084;2022-12-11T15:45:39;99045.44;;;12.77;66.99
68616;BME280;57261;47.504;19.084;2022-12-11T15:48:47;99045.94;;;12.68;66.81
68616;BME280;57261;47.504;19.084;2022-12-11T15:51:48;99019.59;;;12.45;67.25
68616;BME280;57261;47.504;19.084;2022-12-11T15:54:49;99035.06;;;12.62;67.40
68616;BME280;57261;47.504;19.084;2022-12-11T15:57:59;99057.59;;;12.60;66.93
68616;BME280;57261;47.504;19.084;2022-12-11T16:01:00;99053.09;;;12.63;67.60
68616;BME280;57261;47.504;19.084;2022-12-11T16:04:00;98966.19;;;12.13;67.01
68616;BME280;57261;47.504;19.084;2022-12-11T16:07:01;99058.91;;;12.01;54.21
68616;BME280;57261;47.504;19.084;2022-12-11T16:10:05;99075.03;;;12.23;68.68
68616;BME280;57261;47.504;19.084;2022-12-11T16:13:06;99064.53;;;12.26;67.89
68616;BME280;57261;47.504;19.084;2022-12-11T16:16:06;99076.28;;;12.48;68.28
68616;BME280;57261;47.504;19.084;2022-12-11T16:19:07;99071.97;;;12.32;67.17
68616;BME280;57261;47.504;19.084;2022-12-11T16:22:08;99069.69;;;12.43;67.84
68616;BME280;57261;47.504;19.084;2022-12-11T16:25:09;99062.72;;;12.45;67.50
68616;BME280;57261;47.504;19.084;2022-12-11T16:28:11;99079.16;;;12.59;67.78
68616;BME280;57261;47.504;19.084;2022-12-11T16:31:14;99082.25;;;12.65;67.57
68616;BME280;57261;47.504;19.084;2022-12-11T16:34:15;99072.56;;;12.53;65.12
68616;BME280;57261;47.504;19.084;2022-12-11T16:37:15;99082.53;;;12.61;67.46
68616;BME280;57261;47.504;19.084;2022-12-11T16:40:16;99095.34;;;12.62;67.04
68616;BME280;57261;47.504;19.084;2022-12-11T16:43:17;99095.25;;;12.64;67.50
68616;BME280;57261;47.504;19.084;2022-12-11T16:46:20;99068.94;;;12.41;66.97
68616;BME280;57261;47.504;19.084;2022-12-11T16:49:21;99101.97;;;12.68;67.53
68616;BME280;57261;47.504;19.084;2022-12-11T16:52:21;99061.72;;;12.30;65.96
68616;BME280;57261;47.504;19.084;2022-12-11T16:55:22;99096.34;;;12.60;67.56
68616;BME280;57261;47.504;19.084;2022-12-11T16:58:22;99093.72;;;12.45;63.83
68616;BME280;57261;47.504;19.084;2022-12-11T17:01:23;99091.94;;;12.28;67.91
68616;BME280;57261;47.504;19.084;2022-12-11T17:04:23;99096.94;;;12.48;67.91
68616;BME280;57261;47.504;19.084;2022-12-11T17:07:23;99085.03;;;12.46;67.41
68616;BME280;57261;47.504;19.084;2022-12-11T17:10:28;99088.75;;;12.57;67.48
68616;BME280;57261;47.504;19.084;2022-12-11T17:13:33;99074.75;;;12.61;66.02
68616;BME280;57261;47.504;19.084;2022-12-11T17:16:34;99095.44;;;12.61;67.03
68616;BME280;57261;47.504;19.084;2022-12-11T17:19:34;99049.94;;;12.42;66.04
68616;BME280;57261;47.504;19.084;2022-12-11T17:22:36;99078.56;;;12.54;67.63